GCC Virtual Airport Information Service

Mohammed V International Airport

ICAO: GMMN Country: MA
Latitude: 33.3675 Longitude: -7.58997
Latest Arrival : ETD613 (OMAA-GMMN) Latest Departure : GFA51001 (GMMN-OBBI)


WX CaptureLIVE
Data provided by noaa.gov | Fetched at 06:37:05

METAR : GMMN 270600Z 11004KT 3000 BR SCT004 10/10 Q1025 NOSIG

TAF : GMMN 270500Z 2706/2812 07005KT 8000 FEW010 BECMG 2712/2715 34012KT BECMG 2723/2803 10005KT 2000 BR BKN003 BECMG 2808/2812 34011KT CAVOK


Runway Data for GMMN
Data provided by openaviationdata.com

Runway ID Mag Var Hdg Length Elevation Surface ILS Freq ILS Id ILS Slope
17L -2 166° 12282 ft 656 ft Bituminous -- -- --
17R -2 166° 12197 ft 656 ft Bituminous 108.3 CAS 3
35L -2 346° 12197 ft 656 ft Bituminous 110.7 INL 3
35R -2 346° 12282 ft 656 ft Bituminous 109.9 INR 2

Mohammed V International Airport, MA
Use only for reference purposes



Not for navigational purposes.